Time;durP1;ratioP1;P1;durP2;ratioP2;P2;SDS_P1;SDS_P2;PMS_P1;PMS_P2;Temp;Humidity;BMP_temperature;BMP_pressure;BME280_temperature;BME280_humidity;BME280_pressure;Samples;Min_cycle;Max_cycle;Signal;HPM_P1;HPM_P2
2023/11/07 00:00:46;;;;;;;14.18;3.80;;;;;;;11.00;63.70;99783.09;4404281;32;32241;-91
2023/11/07 00:03:14;;;;;;;3.05;2.83;;;;;;;10.81;63.97;99784.84;4390883;32;35181;-91
2023/11/07 00:05:42;;;;;;;2.65;2.45;;;;;;;10.79;64.64;99783.22;4403099;32;34129;-91
2023/11/07 00:08:10;;;;;;;6.87;2.42;;;;;;;10.54;65.50;99796.63;4408596;32;32983;-91
2023/11/07 00:10:39;;;;;;;4.47;4.05;;;;;;;10.70;65.22;99795.06;4406318;32;32557;-91
2023/11/07 00:13:07;;;;;;;8.18;4.47;;;;;;;10.58;66.11;99788.50;4404857;32;33000;-91
2023/11/07 00:15:34;;;;;;;5.07;3.33;;;;;;;10.67;66.11;99792.53;4401343;32;33109;-91
2023/11/07 00:18:05;;;;;;;2.92;2.72;;;;;;;10.63;65.97;99791.81;4413068;32;32831;-91
2023/11/07 00:20:33;;;;;;;3.30;2.67;;;;;;;10.60;66.62;99791.09;4396348;32;32168;-90
2023/11/07 00:23:01;;;;;;;2.92;2.72;;;;;;;10.76;66.04;99798.25;4427644;32;33505;-89
2023/11/07 00:25:29;;;;;;;4.72;4.32;;;;;;;10.76;66.13;99789.50;4416123;32;32935;-91
2023/11/07 00:27:59;;;;;;;3.33;3.12;;;;;;;10.79;66.19;99792.00;4398135;32;33053;-91
2023/11/07 00:30:26;;;;;;;4.82;4.35;;;;;;;11.02;65.62;99793.63;4409929;32;32185;-89
2023/11/07 00:32:55;;;;;;;7.72;4.68;;;;;;;10.96;66.05;99804.44;4397217;32;32840;-91
2023/11/07 00:35:23;;;;;;;13.05;3.60;;;;;;;11.07;66.06;99801.34;4397717;32;32659;-91
2023/11/07 00:37:51;;;;;;;4.50;3.92;;;;;;;11.17;65.44;99799.97;4416602;32;33888;-91
2023/11/07 00:40:20;;;;;;;4.07;3.03;;;;;;;11.42;64.81;99803.19;4402708;32;33317;-91
2023/11/07 00:42:48;;;;;;;1.80;1.02;;;;;;;11.20;65.32;99807.75;4415825;32;33457;-89
2023/11/07 00:45:15;;;;;;;5.03;3.47;;;;;;;11.16;65.97;99801.75;4425804;32;33122;-89
2023/11/07 00:47:43;;;;;;;1.12;1.12;;;;;;;11.22;65.70;99797.97;4413580;32;31794;-89
2023/11/07 00:50:11;;;;;;;3.10;2.47;;;;;;;11.03;66.68;99798.81;4404391;32;32280;-89
2023/11/07 00:52:41;;;;;;;4.05;2.75;;;;;;;11.17;66.53;99797.34;4428289;32;34511;-90
2023/11/07 00:55:09;;;;;;;1.20;1.10;;;;;;;11.17;66.64;99794.69;4395409;32;33278;-89
2023/11/07 00:57:37;;;;;;;3.47;3.17;;;;;;;11.19;67.21;99806.88;4412125;32;33885;-89
2023/11/07 01:00:05;;;;;;;1.42;1.35;;;;;;;11.22;67.08;99803.25;4426971;32;31795;-90
2023/11/07 01:02:34;;;;;;;7.90;5.30;;;;;;;11.32;67.18;99796.63;4425522;32;32704;-89
2023/11/07 01:05:02;;;;;;;4.15;2.80;;;;;;;11.57;65.73;99796.31;4408504;32;33149;-89
2023/11/07 01:07:31;;;;;;;4.07;3.70;;;;;;;11.49;66.30;99783.47;4396189;32;32422;-90
2023/11/07 01:09:59;;;;;;;2.15;1.42;;;;;;;11.49;66.14;99787.91;4396359;32;32413;-90
2023/11/07 01:12:28;;;;;;;3.58;3.20;;;;;;;11.27;67.27;99783.62;4412442;32;32724;-89
2023/11/07 01:14:56;;;;;;;10.43;2.62;;;;;;;11.37;67.16;99784.03;4405899;32;98976;-90
2023/11/07 01:17:24;;;;;;;3.78;2.78;;;;;;;11.25;67.49;99784.59;4412931;32;34085;-89
2023/11/07 01:19:52;;;;;;;4.37;2.85;;;;;;;11.34;66.96;99783.31;4421279;32;33834;-89
2023/11/07 01:22:20;;;;;;;5.47;3.40;;;;;;;11.32;67.58;99796.63;4407102;32;33648;-89
2023/11/07 01:24:49;;;;;;;2.72;1.23;;;;;;;11.31;67.62;99800.19;4401713;32;32957;-90
2023/11/07 01:27:17;;;;;;;2.35;2.15;;;;;;;11.37;67.51;99794.59;4407360;32;34103;-90
2023/11/07 01:29:45;;;;;;;3.70;3.08;;;;;;;11.37;67.29;99799.03;4405356;32;33084;-90
2023/11/07 01:32:13;;;;;;;2.35;2.22;;;;;;;11.51;66.75;99794.81;4407701;32;32584;-89
2023/11/07 01:34:41;;;;;;;1.90;1.80;;;;;;;11.43;66.58;99789.03;4407605;32;32957;-89
2023/11/07 01:37:08;;;;;;;2.97;2.75;;;;;;;11.31;66.80;99794.91;4406765;32;33073;-89
2023/11/07 01:39:37;;;;;;;2.50;2.30;;;;;;;11.27;66.94;99806.53;4414980;32;32324;-88
2023/11/07 01:42:07;;;;;;;2.15;2.03;;;;;;;11.14;66.98;99797.47;4417132;32;32813;-89
2023/11/07 01:44:34;;;;;;;1.73;1.62;;;;;;;11.19;67.08;99806.03;4403729;32;33992;-88
2023/11/07 01:47:03;;;;;;;4.60;2.37;;;;;;;11.51;65.21;99792.16;4392913;32;33014;-89
2023/11/07 01:49:31;;;;;;;2.37;2.17;;;;;;;11.22;66.28;99800.63;4402743;32;32531;-88
2023/11/07 01:51:59;;;;;;;1.65;1.55;;;;;;;11.36;66.30;99798.19;4415262;32;34317;-88
2023/11/07 01:54:27;;;;;;;1.62;1.45;;;;;;;11.24;66.77;99812.81;4406891;32;33349;-88
2023/11/07 01:56:55;;;;;;;7.75;2.53;;;;;;;11.27;66.65;99819.75;4420382;32;32806;-88
2023/11/07 01:59:24;;;;;;;1.45;1.37;;;;;;;11.30;66.45;99809.06;4401643;32;33210;-87
2023/11/07 02:01:54;;;;;;;2.95;2.58;;;;;;;11.27;66.85;99803.91;4411824;32;34113;-89
2023/11/07 02:04:24;;;;;;;11.02;4.62;;;;;;;11.11;67.06;99808.16;4418181;32;33091;-89
2023/11/07 02:06:52;;;;;;;8.10;3.42;;;;;;;11.24;66.98;99809.31;4412166;32;32842;-87
2023/11/07 02:09:22;;;;;;;2.80;2.55;;;;;;;11.25;66.48;99811.91;4393064;32;32302;-87
2023/11/07 02:11:50;;;;;;;3.28;2.47;;;;;;;11.22;67.01;99811.19;4401519;32;32826;-88
2023/11/07 02:14:29;;;;;;;1.10;0.62;;;;;;;11.28;66.89;99810.91;4390622;32;33317;-88
2023/11/07 02:16:59;;;;;;;3.45;1.92;;;;;;;11.28;67.29;99810.91;4402893;32;33022;-88
2023/11/07 02:19:26;;;;;;;0.62;0.40;;;;;;;11.27;67.08;99814.47;4406927;32;33329;-89
2023/11/07 02:21:58;;;;;;;1.92;1.75;;;;;;;11.18;67.50;99810.47;4393819;32;34117;-89
2023/11/07 02:24:28;;;;;;;1.00;0.45;;;;;;;11.15;67.72;99809.75;4407132;32;33224;-89
2023/11/07 02:26:57;;;;;;;1.27;0.77;;;;;;;11.07;67.54;99817.19;4405525;32;32871;-90
2023/11/07 02:29:25;;;;;;;0.45;0.32;;;;;;;11.16;67.31;99812.34;4394217;32;33515;-89
2023/11/07 02:31:54;;;;;;;1.60;1.50;;;;;;;11.12;67.56;99816.03;4394512;32;33750;-89
2023/11/07 02:34:22;;;;;;;1.30;1.05;;;;;;;11.21;66.98;99812.13;4387899;32;32625;-89
2023/11/07 02:36:52;;;;;;;1.52;1.42;;;;;;;11.16;67.54;99816.78;4402820;32;33956;-90
2023/11/07 02:39:21;;;;;;;0.47;0.28;;;;;;;11.19;67.36;99816.59;4406658;32;32482;-89
2023/11/07 02:41:48;;;;;;;0.82;0.82;;;;;;;11.17;67.46;99813.19;4422577;32;32959;-90
2023/11/07 02:44:17;;;;;;;0.10;0.10;;;;;;;11.27;66.87;99819.75;4415619;32;33210;-90
2023/11/07 02:46:46;;;;;;;1.20;1.10;;;;;;;11.18;66.71;99820.19;4426267;32;32097;-90
2023/11/07 02:49:14;;;;;;;1.00;1.00;;;;;;;11.21;66.32;99828.84;4415936;32;33159;-90
2023/11/07 02:51:43;;;;;;;1.77;1.67;;;;;;;11.01;67.14;99821.81;4384321;32;33282;-90
2023/11/07 02:54:11;;;;;;;1.42;1.23;;;;;;;11.03;67.20;99819.09;4391262;32;34116;-90
2023/11/07 02:56:42;;;;;;;0.57;0.57;;;;;;;10.93;67.04;99821.31;4409581;32;32709;-90
2023/11/07 02:59:11;;;;;;;0.68;0.68;;;;;;;10.88;67.22;99818.00;4417662;32;32053;-90
2023/11/07 03:01:39;;;;;;;0.57;0.57;;;;;;;10.84;67.19;99824.34;4408512;32;34239;-88
2023/11/07 03:04:07;;;;;;;0.65;0.65;;;;;;;10.79;66.80;99833.41;4408156;32;33020;-88
2023/11/07 03:06:35;;;;;;;1.42;1.33;;;;;;;11.09;65.38;99817.97;4402686;32;34096;-87
2023/11/07 03:09:03;;;;;;;0.62;0.40;;;;;;;10.89;65.70;99825.00;4425000;32;33433;-87
2023/11/07 03:11:32;;;;;;;0.20;0.20;;;;;;;10.72;66.54;99830.16;4425172;32;34137;-87
2023/11/07 03:14:01;;;;;;;0.50;0.45;;;;;;;10.81;66.28;99836.81;4408705;32;34186;-88
2023/11/07 03:16:29;;;;;;;1.65;0.62;;;;;;;10.80;66.12;99843.03;4400221;32;32785;-88
2023/11/07 03:18:57;;;;;;;0.73;0.73;;;;;;;10.68;66.18;99837.38;4438082;32;33369;-88
2023/11/07 03:21:26;;;;;;;3.12;2.90;;;;;;;10.81;65.86;99845.59;4411847;32;33724;-88
2023/11/07 03:23:54;;;;;;;0.43;0.43;;;;;;;10.81;65.93;99839.47;4429353;32;33825;-87
2023/11/07 03:26:21;;;;;;;0.57;0.57;;;;;;;10.66;66.30;99846.28;4409768;32;32969;-87
2023/11/07 03:28:49;;;;;;;3.25;2.83;;;;;;;10.69;65.98;99847.00;4410603;32;33549;-88
2023/11/07 03:31:17;;;;;;;2.15;2.03;;;;;;;10.58;65.98;99846.59;4398113;32;33915;-87
2023/11/07 03:33:45;;;;;;;1.85;1.70;;;;;;;10.49;66.62;99847.87;4411733;32;33840;-88
2023/11/07 03:36:15;;;;;;;6.25;0.82;;;;;;;10.51;66.16;99848.66;4423387;32;33847;-88
2023/11/07 03:38:45;;;;;;;3.35;1.87;;;;;;;10.38;66.23;99849.22;4422310;32;34179;-88
2023/11/07 03:41:14;;;;;;;0.82;0.82;;;;;;;10.43;66.24;99853.38;4405568;32;33570;-88
2023/11/07 03:43:41;;;;;;;1.30;1.27;;;;;;;10.40;66.11;99855.31;4417104;32;34109;-88
2023/11/07 03:46:09;;;;;;;3.05;2.10;;;;;;;10.29;66.09;99850.47;4423139;32;35043;-87
2023/11/07 03:48:37;;;;;;;0.60;0.37;;;;;;;10.41;64.95;99849.97;4412603;32;33203;-89
2023/11/07 03:51:05;;;;;;;6.12;1.10;;;;;;;10.18;65.79;99845.62;4402164;32;32722;-89
2023/11/07 03:53:33;;;;;;;1.00;1.00;;;;;;;10.40;63.99;99848.25;4410430;32;33269;-90
2023/11/07 03:56:02;;;;;;;3.78;1.05;;;;;;;10.36;64.59;99856.37;4387402;32;32695;-90
2023/11/07 03:58:30;;;;;;;2.10;1.73;;;;;;;10.32;64.29;99849.50;4408599;32;32298;-88
2023/11/07 04:00:58;;;;;;;5.55;1.85;;;;;;;9.96;65.50;99861.44;4410044;32;32864;-86
2023/11/07 04:03:26;;;;;;;0.85;0.85;;;;;;;10.00;65.70;99865.69;4422966;32;32698;-86
2023/11/07 04:05:54;;;;;;;0.85;0.85;;;;;;;10.17;64.92;99861.53;4421525;32;33942;-87
2023/11/07 04:08:22;;;;;;;0.75;0.73;;;;;;;10.11;64.50;99861.75;4424165;32;33363;-86
2023/11/07 04:10:50;;;;;;;5.60;3.03;;;;;;;10.00;64.76;99873.59;4411826;32;32723;-87
2023/11/07 04:13:18;;;;;;;4.47;1.33;;;;;;;9.78;65.40;99864.84;4434528;32;34052;-86
2023/11/07 04:15:46;;;;;;;0.98;0.98;;;;;;;9.86;64.97;99867.16;4423339;32;32930;-86
2023/11/07 04:18:15;;;;;;;1.90;1.75;;;;;;;9.85;65.05;99865.44;4421568;32;32609;-85
2023/11/07 04:20:45;;;;;;;1.20;1.10;;;;;;;9.84;64.42;99871.66;4410601;32;34670;-90
2023/11/07 04:23:15;;;;;;;2.15;1.95;;;;;;;9.83;64.30;99870.78;4423388;32;33222;-88
2023/11/07 04:25:43;;;;;;;0.85;0.73;;;;;;;9.91;63.85;99871.31;4412011;32;33744;-89
2023/11/07 04:28:11;;;;;;;1.52;1.40;;;;;;;9.79;64.19;99866.56;4404608;32;32845;-88
2023/11/07 04:30:39;;;;;;;4.47;1.45;;;;;;;9.73;64.52;99866.78;4410036;32;32933;-89
2023/11/07 04:33:08;;;;;;;1.87;1.15;;;;;;;9.79;64.13;99876.25;4404883;32;33489;-88
2023/11/07 04:35:36;;;;;;;4.65;1.85;;;;;;;9.79;64.26;99877.09;4406355;32;33468;-88
2023/11/07 04:38:04;;;;;;;0.85;0.85;;;;;;;9.61;65.09;99878.66;4409391;32;32398;-88
2023/11/07 04:40:32;;;;;;;0.45;0.45;;;;;;;9.65;64.53;99869.72;4403632;32;32998;-86
2023/11/07 04:43:01;;;;;;;0.43;0.43;;;;;;;9.53;64.73;99880.72;4417441;32;33957;-86
2023/11/07 04:45:28;;;;;;;0.22;0.22;;;;;;;9.56;64.46;99877.13;4425184;32;32758;-86
2023/11/07 04:47:57;;;;;;;0.20;0.20;;;;;;;9.51;64.11;99881.72;4391189;32;32038;-86
2023/11/07 04:50:26;;;;;;;2.03;1.62;;;;;;;9.46;64.92;99872.22;4421496;32;33393;-88
2023/11/07 04:52:54;;;;;;;0.93;0.82;;;;;;;9.56;63.52;99875.34;4414588;32;34778;-87
2023/11/07 04:55:22;;;;;;;1.62;1.10;;;;;;;9.56;64.02;99874.50;4411395;32;33405;-86
2023/11/07 04:57:54;;;;;;;0.28;0.28;;;;;;;9.43;64.18;99879.37;4428309;32;33798;-86
2023/11/07 05:00:22;;;;;;;1.17;1.12;;;;;;;9.38;64.16;99876.91;4423008;32;32951;-86
2023/11/07 05:02:50;;;;;;;7.12;0.50;;;;;;;9.27;64.94;99889.63;4430692;32;32956;-87
2023/11/07 05:05:18;;;;;;;0.62;0.62;;;;;;;9.33;64.12;99899.94;4422495;32;33016;-86
2023/11/07 05:07:47;;;;;;;0.30;0.30;;;;;;;9.33;64.08;99881.50;4419387;32;33513;-87
2023/11/07 05:10:15;;;;;;;0.45;0.45;;;;;;;9.18;64.37;99885.56;4419855;32;32394;-87
2023/11/07 05:12:43;;;;;;;3.60;1.65;;;;;;;9.56;62.56;99869.22;4405307;32;33976;-86
2023/11/07 05:15:11;;;;;;;0.40;0.40;;;;;;;9.53;62.50;99879.87;4424050;32;35009;-89
2023/11/07 05:17:40;;;;;;;0.22;0.22;;;;;;;9.30;62.98;99886.87;4421172;32;32664;-89
2023/11/07 05:20:10;;;;;;;3.70;1.35;;;;;;;9.08;64.14;99888.59;4411757;32;33184;-89
2023/11/07 05:22:38;;;;;;;0.90;0.70;;;;;;;9.05;64.59;99883.41;4409740;32;33406;-89
2023/11/07 05:25:07;;;;;;;1.75;0.75;;;;;;;9.20;63.98;99885.50;4417039;32;32792;-89
2023/11/07 05:27:37;;;;;;;0.35;0.35;;;;;;;9.24;63.59;99889.72;4415010;32;32388;-89
2023/11/07 05:30:07;;;;;;;0.50;0.50;;;;;;;9.08;63.94;99888.59;4405356;32;33203;-88
2023/11/07 05:32:35;;;;;;;2.92;1.40;;;;;;;9.12;64.04;99888.41;4416294;32;33129;-88
2023/11/07 05:35:03;;;;;;;0.62;0.62;;;;;;;9.11;63.80;99877.91;4401994;32;33147;-88
2023/11/07 05:37:32;;;;;;;0.40;0.40;;;;;;;9.05;63.40;99889.53;4397413;32;33945;-87
2023/11/07 05:40:00;;;;;;;5.57;1.27;;;;;;;8.99;64.52;99884.50;4404081;32;33696;-88
2023/11/07 05:42:27;;;;;;;0.62;0.62;;;;;;;8.85;64.60;99892.88;4415251;32;33976;-87
2023/11/07 05:44:56;;;;;;;2.83;0.52;;;;;;;8.89;64.43;99897.13;4401269;32;32662;-86
2023/11/07 05:47:25;;;;;;;0.30;0.30;;;;;;;8.98;64.25;99896.81;4414008;32;34126;-87
2023/11/07 05:49:53;;;;;;;0.70;0.70;;;;;;;8.84;64.42;99901.72;4418602;32;33944;-89
2023/11/07 05:52:21;;;;;;;1.25;1.15;;;;;;;9.02;63.95;99907.22;4413433;32;33436;-85
2023/11/07 05:54:49;;;;;;;2.72;1.05;;;;;;;9.07;63.89;99910.53;4407160;32;32909;-88
2023/11/07 05:57:19;;;;;;;0.13;0.13;;;;;;;8.98;64.05;99920.50;4401260;32;32799;-89
2023/11/07 05:59:48;;;;;;;0.80;0.80;;;;;;;9.03;63.93;99923.00;4411103;32;32701;-86
2023/11/07 06:02:16;;;;;;;9.52;2.17;;;;;;;9.02;64.45;99920.38;4422258;32;34810;-86
2023/11/07 06:04:46;;;;;;;0.98;0.90;;;;;;;9.03;64.18;99924.75;4414892;32;33837;-86
2023/11/07 06:07:14;;;;;;;5.12;1.80;;;;;;;8.94;64.51;99934.69;4408628;32;32320;-86
2023/11/07 06:09:41;;;;;;;0.77;0.77;;;;;;;8.93;64.79;99938.25;4401510;32;33466;-86
2023/11/07 06:12:10;;;;;;;1.08;0.98;;;;;;;9.03;64.46;99938.78;4399080;32;32878;-87
2023/11/07 06:14:44;;;;;;;4.78;0.90;;;;;;;8.92;65.08;99952.31;4425648;32;34075;-87
2023/11/07 06:17:12;;;;;;;0.73;0.73;;;;;;;9.03;65.11;99949.31;4426018;32;32279;-87
2023/11/07 06:19:40;;;;;;;2.20;2.08;;;;;;;9.07;64.40;99944.78;4434082;32;33771;-88
2023/11/07 06:22:08;;;;;;;3.72;2.40;;;;;;;9.09;64.45;99943.84;4420134;32;33186;-87
2023/11/07 06:24:36;;;;;;;0.98;0.93;;;;;;;8.94;65.13;99945.22;4415874;32;35231;-89
2023/11/07 06:27:05;;;;;;;1.60;1.50;;;;;;;9.09;64.92;99949.09;4416890;32;32287;-84
2023/11/07 06:29:33;;;;;;;2.37;1.45;;;;;;;9.17;64.88;99951.47;4410888;32;32740;-83
2023/11/07 06:32:01;;;;;;;1.12;1.12;;;;;;;9.00;65.44;99951.19;4426424;32;32847;-83
2023/11/07 06:34:28;;;;;;;6.82;1.12;;;;;;;9.18;65.06;99958.47;4424183;32;32270;-82
2023/11/07 06:36:56;;;;;;;0.80;0.68;;;;;;;9.12;65.49;99949.00;4424281;32;32348;-83
2023/11/07 06:39:24;;;;;;;2.37;1.05;;;;;;;9.20;65.64;99961.88;4397141;32;32811;-82
2023/11/07 06:41:53;;;;;;;0.90;0.90;;;;;;;9.28;65.35;99949.31;4425147;32;34994;-83
2023/11/07 06:44:21;;;;;;;0.85;0.85;;;;;;;9.23;65.74;99956.53;4410685;32;33187;-82
2023/11/07 06:46:51;;;;;;;1.10;1.10;;;;;;;9.64;64.35;99956.81;4411340;32;32321;-82
2023/11/07 06:49:19;;;;;;;2.08;1.35;;;;;;;9.52;64.67;99954.59;4423880;32;32911;-83
2023/11/07 06:51:47;;;;;;;1.62;1.52;;;;;;;9.35;65.52;99956.09;4424568;32;34834;-83
2023/11/07 06:54:15;;;;;;;1.45;1.37;;;;;;;9.86;64.48;99943.62;4410773;32;33575;-82
2023/11/07 06:56:44;;;;;;;1.35;1.00;;;;;;;10.03;64.55;99949.13;4420187;32;33017;-83
2023/11/07 06:59:11;;;;;;;1.10;1.10;;;;;;;9.99;65.06;99948.37;4409337;32;33645;-82
2023/11/07 07:01:40;;;;;;;2.10;1.90;;;;;;;9.71;66.01;99953.00;4424212;32;33786;-82
2023/11/07 07:04:09;;;;;;;0.70;0.70;;;;;;;9.84;66.15;99954.25;4421091;32;32960;-82
2023/11/07 07:06:37;;;;;;;3.03;2.15;;;;;;;9.91;66.15;99950.47;4419124;32;33490;-83
2023/11/07 07:09:06;;;;;;;1.00;1.00;;;;;;;9.83;67.05;99962.25;4424848;32;33138;-82
2023/11/07 07:11:33;;;;;;;2.90;1.37;;;;;;;10.09;66.86;99969.13;4433325;32;34792;-83
2023/11/07 07:14:02;;;;;;;3.42;1.45;;;;;;;10.26;66.46;99961.47;4433422;32;33988;-82
2023/11/07 07:16:34;;;;;;;2.30;1.45;;;;;;;10.49;66.20;99974.59;4408940;32;32431;-82
2023/11/07 07:19:06;;;;;;;0.52;0.40;;;;;;;10.44;66.42;99976.56;4411180;32;32628;-83
2023/11/07 07:21:34;;;;;;;5.95;1.02;;;;;;;10.31;67.28;99983.25;4411657;32;33847;-83
2023/11/07 07:24:15;;;;;;;1.27;0.62;;;;;;;10.68;67.45;99977.34;4409900;32;33765;-82
2023/11/07 07:26:44;;;;;;;0.85;0.55;;;;;;;10.94;67.05;99970.97;4405437;32;33707;-82
2023/11/07 07:29:15;;;;;;;0.95;0.95;;;;;;;10.64;68.27;99977.53;4409869;32;32773;-82
2023/11/07 07:31:44;;;;;;;0.57;0.57;;;;;;;10.61;68.97;99972.38;4421447;32;33401;-82
2023/11/07 07:34:12;;;;;;;1.20;1.10;;;;;;;10.81;69.05;99977.66;4419897;32;32861;-82
2023/11/07 07:36:43;;;;;;;0.25;0.25;;;;;;;11.19;68.13;99981.31;4428178;32;33138;-83
2023/11/07 07:39:29;;;;;;;8.00;2.55;;;;;;;11.42;67.62;99972.38;4409901;32;34193;-83
2023/11/07 07:42:00;;;;;;;0.17;0.17;;;;;;;11.45;67.76;99966.12;4417066;32;33993;-83
2023/11/07 07:44:30;;;;;;;0.30;0.30;;;;;;;11.82;67.06;99973.28;4420791;32;33661;-83
2023/11/07 07:46:58;;;;;;;1.42;1.30;;;;;;;11.99;67.14;99970.69;4418620;32;33881;-82
2023/11/07 07:49:26;;;;;;;1.40;1.33;;;;;;;12.08;67.30;99965.91;4410376;32;33576;-82
2023/11/07 07:51:59;;;;;;;0.28;0.28;;;;;;;12.25;67.60;99972.13;4410475;32;33934;-83
2023/11/07 07:54:29;;;;;;;;;;;;;;;12.37;67.60;99967.16;4425494;32;34683;-82
2023/11/07 07:57:17;;;;;;;0.00;0.00;;;;;;;12.45;68.01;99976.47;4415902;32;32749;-82
2023/11/07 07:59:46;;;;;;;0.20;0.20;;;;;;;12.45;68.26;99968.50;4429585;32;33824;-83
2023/11/07 08:02:15;;;;;;;0.32;0.13;;;;;;;12.62;67.76;99970.31;4410461;32;33212;-82
2023/11/07 08:04:43;;;;;;;0.20;0.20;;;;;;;12.81;67.16;99965.81;4422697;32;33920;-82
2023/11/07 08:07:16;;;;;;;0.35;0.32;;;;;;;12.80;67.87;99976.50;4421502;32;32184;-83
2023/11/07 08:09:45;;;;;;;1.75;1.37;;;;;;;12.91;67.54;99970.66;4416531;32;33120;-83
2023/11/07 08:12:12;;;;;;;0.47;0.47;;;;;;;12.65;68.18;99972.81;4421679;32;34201;-83
2023/11/07 08:14:42;;;;;;;0.20;0.20;;;;;;;13.14;67.52;99969.47;4418552;32;33593;-82
2023/11/07 08:17:10;;;;;;;0.30;0.20;;;;;;;13.15;67.37;99968.53;4423183;32;33494;-83
2023/11/07 08:19:38;;;;;;;0.43;0.40;;;;;;;13.12;68.12;99976.66;4410120;32;32707;-83
2023/11/07 08:22:06;;;;;;;0.70;0.70;;;;;;;13.70;66.43;99968.34;4422632;32;33375;-82
2023/11/07 08:24:36;;;;;;;1.23;0.35;;;;;;;13.94;65.09;99969.66;4437877;32;34177;-82
2023/11/07 08:27:03;;;;;;;0.55;0.55;;;;;;;13.91;65.55;99967.19;4415474;32;32518;-83
2023/11/07 08:29:31;;;;;;;1.35;1.25;;;;;;;13.77;65.54;99969.72;4414511;32;33978;-83
2023/11/07 08:31:59;;;;;;;0.90;0.85;;;;;;;13.97;65.37;99972.16;4410283;32;33901;-82
2023/11/07 08:34:32;;;;;;;2.80;1.48;;;;;;;13.99;64.84;99974.72;4414853;32;34316;-82
2023/11/07 08:37:01;;;;;;;0.30;0.30;;;;;;;14.26;63.06;99977.63;4425086;32;33213;-83
2023/11/07 08:39:40;;;;;;;3.60;1.05;;;;;;;14.14;63.32;99973.00;4398970;32;32702;-83
2023/11/07 08:42:10;;;;;;;0.47;0.47;;;;;;;14.24;63.25;99979.50;4398090;32;32729;-83
2023/11/07 08:44:38;;;;;;;0.10;0.10;;;;;;;14.20;63.61;99980.66;4417582;32;33609;-83
2023/11/07 08:47:06;;;;;;;0.43;0.28;;;;;;;14.40;62.98;99990.16;4403141;32;33114;-83
2023/11/07 08:49:34;;;;;;;1.27;0.43;;;;;;;14.35;62.49;99985.09;4388414;32;35043;-83
2023/11/07 08:52:04;;;;;;;0.47;0.47;;;;;;;14.88;61.06;99985.66;4423581;32;34871;-83
2023/11/07 08:54:36;;;;;;;0.82;0.32;;;;;;;14.90;60.64;99987.25;4415369;32;33618;-83
2023/11/07 08:57:05;;;;;;;0.55;0.55;;;;;;;15.32;59.83;99985.66;4406922;32;32637;-83
2023/11/07 08:59:36;;;;;;;0.00;0.00;;;;;;;15.03;60.07;99982.06;4410648;32;34011;-83
2023/11/07 09:02:04;;;;;;;0.40;0.40;;;;;;;15.38;59.49;99987.94;4404344;32;33397;-83
2023/11/07 09:04:34;;;;;;;5.37;1.58;;;;;;;15.47;59.25;99990.03;4416782;32;32840;-83
2023/11/07 09:07:03;;;;;;;0.25;0.25;;;;;;;15.54;58.54;99980.75;4417478;32;34346;-83
2023/11/07 09:09:31;;;;;;;0.35;0.35;;;;;;;15.59;58.82;99989.31;4409704;32;33853;-83
2023/11/07 09:11:59;;;;;;;0.30;0.30;;;;;;;15.35;59.58;99980.16;4417668;32;33912;-83
2023/11/07 09:14:27;;;;;;;1.02;0.88;;;;;;;15.47;59.25;99975.88;4408651;32;34789;-83
2023/11/07 09:16:56;;;;;;;0.47;0.47;;;;;;;16.07;56.91;99978.37;4420226;32;33170;-83
2023/11/07 09:19:23;;;;;;;0.62;0.55;;;;;;;15.75;57.94;99972.41;4410773;32;32833;-83
2023/11/07 09:21:51;;;;;;;0.40;0.17;;;;;;;16.16;56.36;99968.97;4409610;32;33074;-83
2023/11/07 09:24:20;;;;;;;0.20;0.20;;;;;;;16.30;56.32;99967.09;4432397;32;33939;-83
2023/11/07 09:26:48;;;;;;;0.25;0.25;;;;;;;16.45;55.49;99962.59;4405473;32;32324;-83
2023/11/07 09:29:16;;;;;;;2.67;1.30;;;;;;;16.38;56.16;99964.81;4403484;32;34370;-83
2023/11/07 09:31:45;;;;;;;1.23;1.12;;;;;;;16.22;56.70;99968.56;4402963;32;33757;-83
2023/11/07 09:34:14;;;;;;;0.68;0.60;;;;;;;16.26;56.81;99970.91;4416417;32;33699;-83
2023/11/07 09:36:43;;;;;;;0.35;0.32;;;;;;;16.73;54.53;99966.12;4414495;32;32572;-82
2023/11/07 09:39:11;;;;;;;1.23;0.93;;;;;;;16.61;54.71;99971.28;4395208;32;32912;-83
2023/11/07 09:41:41;;;;;;;0.30;0.30;;;;;;;16.82;54.62;99968.19;4418296;32;33994;-83
2023/11/07 09:44:13;;;;;;;1.40;1.02;;;;;;;16.96;54.01;99967.28;4415733;32;33670;-83
2023/11/07 09:46:41;;;;;;;13.55;0.75;;;;;;;16.88;54.81;99959.78;4419705;32;33142;-83
2023/11/07 09:49:12;;;;;;;0.20;0.20;;;;;;;16.87;55.07;99953.59;4416429;32;33563;-83
2023/11/07 09:51:40;;;;;;;0.52;0.47;;;;;;;16.93;54.80;99957.66;4419648;32;32783;-83
2023/11/07 09:54:09;;;;;;;0.68;0.30;;;;;;;17.18;54.33;99962.16;4434603;32;34098;-83
2023/11/07 09:56:43;;;;;;;5.60;1.25;;;;;;;17.55;53.63;99959.62;4421189;32;33431;-83
2023/11/07 09:59:36;;;;;;;0.50;0.22;;;;;;;17.58;54.15;99954.94;4424455;32;33841;-83
2023/11/07 10:02:06;;;;;;;0.30;0.30;;;;;;;17.44;53.29;99965.72;4430622;32;33708;-83
2023/11/07 10:04:35;;;;;;;0.55;0.45;;;;;;;17.69;52.77;99958.66;4416887;32;33854;-84
2023/11/07 10:07:04;;;;;;;1.55;0.52;;;;;;;17.45;53.77;99964.75;4401603;32;33428;-83
2023/11/07 10:09:31;;;;;;;12.95;1.85;;;;;;;17.78;52.38;99955.37;4422235;32;35131;-82
2023/11/07 10:12:00;;;;;;;0.80;0.80;;;;;;;17.73;52.22;99965.50;4412811;32;33452;-83
2023/11/07 10:14:33;;;;;;;0.47;0.47;;;;;;;17.95;50.91;99952.38;4398730;32;33387;-83
2023/11/07 10:17:04;;;;;;;0.32;0.32;;;;;;;17.82;52.15;99948.84;4415655;32;33303;-83
2023/11/07 10:19:32;;;;;;;0.33;0.27;;;;;;;17.75;52.31;99944.91;4421629;32;32760;-83
2023/11/07 10:22:06;;;;;;;0.52;0.40;;;;;;;16.95;56.16;99955.75;4425329;32;33863;-83
2023/11/07 10:24:44;;;;;;;0.65;0.65;;;;;;;17.52;53.65;99958.03;4425811;32;33446;-83
2023/11/07 10:27:12;;;;;;;0.10;0.10;;;;;;;17.93;52.01;99943.59;4438559;32;33060;-83
2023/11/07 10:29:51;;;;;;;0.10;0.10;;;;;;;17.20;54.14;99954.06;4410516;32;34681;-83
2023/11/07 10:32:44;;;;;;;0.90;0.60;;;;;;;17.16;54.58;99948.09;4412081;32;33171;-83
2023/11/07 10:35:12;;;;;;;0.10;0.10;;;;;;;17.43;53.62;99936.47;4423315;32;33962;-83
2023/11/07 10:37:42;;;;;;;0.20;0.20;;;;;;;17.27;53.53;99934.84;4431147;32;33726;-83
2023/11/07 10:40:10;;;;;;;0.35;0.35;;;;;;;17.19;54.07;99928.34;4419332;32;32775;-83
2023/11/07 10:42:44;;;;;;;1.85;0.95;;;;;;;17.35;53.86;99932.50;4419909;32;34731;-83
2023/11/07 10:45:14;;;;;;;1.58;0.70;;;;;;;17.54;53.48;99934.75;4403215;32;33494;-83
2023/11/07 10:47:43;;;;;;;0.43;0.43;;;;;;;17.67;52.81;99934.75;4420678;32;33398;-83
2023/11/07 10:50:17;;;;;;;0.25;0.25;;;;;;;17.46;53.70;99939.75;4413998;32;33185;-83
2023/11/07 10:52:48;;;;;;;2.35;1.50;;;;;;;17.55;53.66;99948.94;4408197;32;33861;-83
2023/11/07 10:55:15;;;;;;;1.40;1.30;;;;;;;17.28;54.47;99952.59;4411265;32;33680;-83
2023/11/07 10:57:46;;;;;;;1.27;0.65;;;;;;;17.12;55.15;99947.44;4422495;32;34328;-83
2023/11/07 11:00:20;;;;;;;7.50;3.75;;;;;;;16.90;56.40;99941.84;4423361;32;33186;-83
2023/11/07 11:02:54;;;;;;;3.45;3.15;;;;;;;16.70;57.46;99936.97;4418132;32;34348;-83
2023/11/07 11:05:24;;;;;;;2.75;1.87;;;;;;;16.25;58.38;99947.06;4424203;32;33605;-83
2023/11/07 11:07:53;;;;;;;3.67;2.05;;;;;;;16.22;58.40;99949.91;4411454;32;32953;-83
2023/11/07 11:10:27;;;;;;;2.22;2.03;;;;;;;16.18;58.37;99959.03;4418657;32;35220;-83
2023/11/07 11:12:56;;;;;;;5.40;3.22;;;;;;;16.10;58.59;99954.22;4421380;32;33896;-83
2023/11/07 11:15:24;;;;;;;4.03;1.67;;;;;;;15.89;58.69;99959.09;4420533;32;32863;-83
2023/11/07 11:18:04;;;;;;;2.05;1.73;;;;;;;15.62;59.47;99954.53;4415283;32;33375;-83
2023/11/07 11:20:39;;;;;;;1.48;1.37;;;;;;;15.56;60.11;99946.91;4421867;32;33535;-82
2023/11/07 11:23:22;;;;;;;2.03;1.55;;;;;;;15.58;60.50;99950.34;4411219;32;33619;-83
2023/11/07 11:26:05;;;;;;;5.47;1.33;;;;;;;15.57;60.87;99943.31;4403648;32;33917;-83
2023/11/07 11:28:38;;;;;;;7.10;2.90;;;;;;;15.70;60.11;99935.44;4422533;32;34114;-82
2023/11/07 11:31:13;;;;;;;1.58;1.42;;;;;;;15.67;60.51;99929.47;4410546;32;33998;-83
2023/11/07 11:33:42;;;;;;;2.80;1.95;;;;;;;15.66;60.24;99927.72;4420938;32;33972;-83
2023/11/07 11:36:33;;;;;;;0.98;0.98;;;;;;;15.83;59.66;99930.19;4423637;32;32500;-83
2023/11/07 11:39:01;;;;;;;1.17;1.00;;;;;;;15.59;60.89;99935.22;4424643;32;33284;-83
2023/11/07 11:41:58;;;;;;;0.75;0.60;;;;;;;16.03;58.92;99942.25;4402823;32;34285;-83
2023/11/07 11:44:25;;;;;;;1.08;1.08;;;;;;;15.64;60.10;99937.63;4417579;32;34375;-83
2023/11/07 11:46:56;;;;;;;2.25;0.82;;;;;;;15.60;60.72;99932.44;4405670;32;35426;-83